Time;durP1;ratioP1;P1;durP2;ratioP2;P2;SDS_P1;SDS_P2;PMS_P1;PMS_P2;Temp;Humidity;BMP_temperature;BMP_pressure;BME280_temperature;BME280_humidity;BME280_pressure;Samples;Min_cycle;Max_cycle;Signal;HPM_P1;HPM_P2
2022/05/04 00:00:57;;;;;;;;;;;;;;;15.79;57.14;99862.16;4385882;32;33112;-91
2022/05/04 00:03:27;;;;;;;;;;;;;;;15.72;57.06;99861.22;4400084;32;34325;-91
2022/05/04 00:05:54;;;;;;;;;;;;;;;15.66;57.15;99864.59;4399251;32;34458;-92
2022/05/04 00:08:25;;;;;;;;;;;;;;;15.43;57.89;99857.47;4399192;32;34478;-91
2022/05/04 00:10:54;;;;;;;;;;;;;;;15.59;57.59;99855.56;4399099;32;33412;-91
2022/05/04 00:13:43;;;;;;;;;;;;;;;15.39;58.37;99856.16;4399519;32;33912;-92
2022/05/04 00:16:12;;;;;;;;;;;;;;;15.49;58.05;99857.63;4399207;32;35861;-91
2022/05/04 00:18:53;;;;;;;;;;;;;;;15.51;57.79;99858.28;4399414;32;34532;-91
2022/05/04 00:21:40;;;;;;;;;;;;;;;14.95;58.60;99873.66;4399632;32;33324;-92
2022/05/04 00:24:10;;;;;;;;;;;;;;;13.94;62.92;99867.91;4399373;32;34508;-91
2022/05/04 00:26:43;;;;;;;;;;;;;;;14.60;60.73;99869.53;4398354;32;33810;-91
2022/05/04 00:29:15;;;;;;;;;;;;;;;14.89;59.02;99864.47;4400590;32;34797;-91
2022/05/04 00:31:47;;;;;;;;;;;;;;;14.81;59.27;99877.03;4398800;32;33495;-91
2022/05/04 00:34:17;;;;;;;;;;;;;;;15.03;58.37;99870.97;4399194;32;33110;-93
2022/05/04 00:37:05;;;;;;;;;;;;;;;14.99;58.35;99867.81;4399511;32;34505;-91
2022/05/04 00:39:33;;;;;;;;;;;;;;;15.05;57.90;99866.28;4398785;32;33422;-92
2022/05/04 00:42:12;;;;;;;;;;;;;;;15.00;57.88;99869.47;4386604;32;32307;-92
2022/05/04 00:44:50;;;;;;;;;;;;;;;14.90;58.02;99866.13;4400146;32;34538;-91
2022/05/04 00:47:34;;;;;;;;;;;;;;;14.98;57.90;99865.28;4401810;32;34298;-92
2022/05/04 00:50:20;;;;;;;;;;;;;;;14.84;58.29;99874.03;4388396;32;34914;-92
2022/05/04 00:52:52;;;;;;;;;;;;;;;14.92;58.17;99882.06;4374417;32;33638;-91
2022/05/04 00:55:25;;;;;;;;;;;;;;;14.71;58.78;99877.22;4399656;32;34720;-92
2022/05/04 01:01:16;;;;;;;;;;;;;;;14.68;59.26;99882.91;4385084;32;33015;-92
2022/05/04 01:03:44;;;;;;;;;;;;;;;14.70;59.06;99880.03;4411701;32;32621;-92
2022/05/04 01:06:13;;;;;;;;;;;;;;;14.79;58.49;99873.69;4399193;32;33626;-92
2022/05/04 01:08:41;;;;;;;;;;;;;;;14.81;58.29;99883.22;4387005;32;35292;-93
2022/05/04 01:11:09;;;;;;;;;;;;;;;14.65;58.64;99877.88;4399479;32;36091;-92
2022/05/04 01:13:38;;;;;;;;;;;;;;;14.48;59.53;99872.69;4387143;32;32898;-92
2022/05/04 01:16:05;;;;;;;;;;;;;;;14.66;58.86;99874.19;4400321;32;33732;-92
2022/05/04 01:18:35;;;;;;;;;;;;;;;14.42;58.92;99870.69;4399039;32;35335;-91
2022/05/04 01:21:25;;;;;;;;;;;;;;;14.58;58.29;99873.38;4385911;32;33202;-93
2022/05/04 01:23:54;;;;;;;;;;;;;;;14.21;59.13;99867.66;4386726;32;32724;-92
2022/05/04 01:26:24;;;;;;;;;;;;;;;13.79;60.59;99868.72;4386072;32;32905;-91
2022/05/04 01:28:52;;;;;;;;;;;;;;;13.28;62.20;99875.00;4400297;32;34100;-91
2022/05/04 01:31:30;;;;;;;;;;;;;;;14.04;59.32;99875.81;4387917;32;35142;-92
2022/05/04 01:34:00;;;;;;;;;;;;;;;14.23;58.42;99872.84;4386734;32;33260;-92
2022/05/04 01:36:29;;;;;;;;;;;;;;;13.39;60.93;99873.91;4386488;32;35482;-91
2022/05/04 01:38:57;;;;;;;;;;;;;;;13.82;59.85;99874.56;4411104;32;35092;-90
2022/05/04 01:44:13;;;;;;;;;;;;;;;14.01;58.68;99870.75;4375579;32;32366;-91
2022/05/04 01:46:41;;;;;;;;;;;;;;;13.93;58.96;99863.56;4386363;32;33354;-91
2022/05/04 01:49:10;;;;;;;;;;;;;;;14.00;58.87;99869.94;4413298;32;33768;-92
2022/05/04 01:51:40;;;;;;;;;;;;;;;13.87;59.32;99868.72;4413573;32;34463;-91
2022/05/04 01:54:07;;;;;;;;;;;;;;;13.93;59.11;99874.25;4388246;32;33465;-91
2022/05/04 01:56:38;;;;;;;;;;;;;;;13.87;59.21;99869.56;4401329;32;33763;-91
2022/05/04 01:59:09;;;;;;;;;;;;;;;13.88;59.01;99873.06;4401706;32;35777;-91
2022/05/04 02:01:39;;;;;;;;;;;;;;;13.92;58.74;99867.25;4388927;32;33120;-92
2022/05/04 02:04:10;;;;;;;;;;;;;;;13.87;58.59;99863.37;4401464;32;32693;-91
2022/05/04 02:06:38;;;;;;;;;;;;;;;13.83;58.84;99864.69;4400850;32;34513;-91
2022/05/04 02:09:06;;;;;;;;;;;;;;;13.87;58.76;99866.88;4400894;32;35004;-92
2022/05/04 02:11:35;;;;;;;;;;;;;;;13.82;58.95;99861.19;4400574;32;33618;-92
2022/05/04 02:14:07;;;;;;;;;;;;;;;13.67;59.54;99870.00;4401445;32;33519;-91
2022/05/04 02:16:42;;;;;;;;;;;;;;;13.86;58.76;99864.37;4401822;32;33288;-91
2022/05/04 02:19:20;;;;;;;;;;;;;;;13.43;60.34;99854.72;4414906;32;34774;-92
2022/05/04 02:21:48;;;;;;;;;;;;;;;13.57;59.99;99858.59;4375484;32;34987;-91
2022/05/04 02:24:20;;;;;;;;;;;;;;;13.69;59.51;99858.13;4400871;32;33704;-91
2022/05/04 02:26:50;;;;;;;;;;;;;;;13.72;59.18;99863.19;4400717;32;34121;-91
2022/05/04 02:29:19;;;;;;;;;;;;;;;13.55;59.46;99864.13;4400685;32;34397;-90
2022/05/04 02:31:46;;;;;;;;;;;;;;;13.69;59.11;99870.69;4400291;32;35591;-91
2022/05/04 02:34:16;;;;;;;;;;;;;;;13.71;58.90;99866.84;4400295;32;34610;-91
2022/05/04 02:39:34;;;;;;;;;;;;;;;13.60;59.38;99864.44;4414474;32;35420;-91
2022/05/04 02:42:02;;;;;;;;;;;;;;;13.43;59.50;99880.59;4399849;32;34302;-91
2022/05/04 02:44:30;;;;;;;;;;;;;;;13.59;58.98;99878.00;4399539;32;32604;-91
2022/05/04 02:47:01;;;;;;;;;;;;;;;13.29;59.70;99882.03;4387762;32;33367;-91
2022/05/04 02:49:28;;;;;;;;;;;;;;;13.54;59.09;99878.47;4388504;32;33716;-91
2022/05/04 02:51:57;;;;;;;;;;;;;;;13.61;58.46;99876.81;4414394;32;33345;-90
2022/05/04 02:54:25;;;;;;;;;;;;;;;13.52;58.48;99883.16;4401097;32;32986;-90
2022/05/04 02:56:54;;;;;;;;;;;;;;;13.51;58.55;99883.31;4402345;32;34475;-90
2022/05/04 02:59:21;;;;;;;;;;;;;;;13.38;59.04;99882.91;4389395;32;35192;-90
2022/05/04 03:04:40;;;;;;;;;;;;;;;13.36;59.45;99883.06;4404577;32;33032;-90
2022/05/04 03:07:09;;;;;;;;;;;;;;;13.34;59.48;99881.56;4389544;32;32200;-90
2022/05/04 03:09:37;;;;;;;;;;;;;;;13.33;59.57;99871.87;4401992;32;34363;-91
2022/05/04 03:12:06;;;;;;;;;;;;;;;13.10;60.36;99879.59;4401414;32;33465;-91
2022/05/04 03:14:35;;;;;;;;;;;;;;;13.21;59.91;99878.50;4401628;32;32484;-90
2022/05/04 03:17:03;;;;;;;;;;;;;;;13.18;59.89;99871.63;4402107;32;33861;-90
2022/05/04 03:19:31;;;;;;;;;;;;;;;12.66;61.74;99885.09;4401346;32;35506;-90
2022/05/04 03:21:59;;;;;;;;;;;;;;;12.95;60.85;99875.81;4401740;32;34939;-90
2022/05/04 03:24:27;;;;;;;;;;;;;;;13.12;59.95;99885.59;4401929;32;33463;-90
2022/05/04 03:26:55;;;;;;;;;;;;;;;13.08;59.95;99881.59;4389585;32;32935;-90
2022/05/04 03:29:25;;;;;;;;;;;;;;;13.06;60.02;99883.59;4415850;32;35480;-90
2022/05/04 03:31:55;;;;;;;;;;;;;;;13.09;59.82;99893.09;4388987;32;34004;-91
2022/05/04 03:34:31;;;;;;;;;;;;;;;12.86;60.37;99894.59;4415826;32;33786;-90
2022/05/04 03:37:00;;;;;;;;;;;;;;;12.41;62.69;99891.22;4389655;32;33520;-90
2022/05/04 03:39:28;;;;;;;;;;;;;;;12.95;60.69;99902.50;4401734;32;35326;-90
2022/05/04 03:42:02;;;;;;;;;;;;;;;12.92;60.51;99900.13;4415270;32;33338;-89
2022/05/04 03:44:30;;;;;;;;;;;;;;;12.79;61.05;99902.37;4401625;32;33785;-89
2022/05/04 03:46:59;;;;;;;;;;;;;;;12.91;60.67;99903.81;4401476;32;33595;-90
2022/05/04 03:49:27;;;;;;;;;;;;;;;12.98;60.38;99912.91;4401114;32;34766;-90
2022/05/04 03:51:56;;;;;;;;;;;;;;;12.88;60.88;99893.44;4376466;32;35095;-90
2022/05/04 03:54:25;;;;;;;;;;;;;;;13.04;60.38;99900.75;4402162;32;32932;-90
2022/05/04 03:57:01;;;;;;;;;;;;;;;12.92;60.69;99905.47;4402508;32;33606;-90
2022/05/04 03:59:31;;;;;;;;;;;;;;;13.02;60.67;99903.56;4388001;32;33661;-90
2022/05/04 04:01:59;;;;;;;;;;;;;;;12.99;60.95;99909.22;4401141;32;33363;-90
2022/05/04 04:04:32;;;;;;;;;;;;;;;12.97;61.31;99913.06;4416334;32;34065;-90
2022/05/04 04:07:01;;;;;;;;;;;;;;;12.80;62.14;99913.88;4416207;32;33859;-90
2022/05/04 04:09:28;;;;;;;;;;;;;;;12.51;63.81;99915.97;4387917;32;34572;-89
2022/05/04 04:11:57;;;;;;;;;;;;;;;13.01;61.87;99909.91;4401528;32;34220;-90
2022/05/04 04:14:25;;;;;;;;;;;;;;;13.14;61.11;99909.50;4401774;32;33496;-92
2022/05/04 04:16:53;;;;;;;;;;;;;;;12.96;61.52;99922.06;4415822;32;33058;-90
2022/05/04 04:19:21;;;;;;;;;;;;;;;13.09;61.42;99917.97;4400886;32;35203;-90
2022/05/04 04:21:53;;;;;;;;;;;;;;;12.79;62.22;99930.91;4401035;32;33743;-90
2022/05/04 04:24:24;;;;;;;;;;;;;;;13.01;61.85;99931.28;4402240;32;34207;-90
2022/05/04 04:26:52;;;;;;;;;;;;;;;13.03;61.82;99923.13;4415204;32;33034;-90
2022/05/04 04:29:19;;;;;;;;;;;;;;;12.45;64.09;99929.94;4413685;32;35414;-90
2022/05/04 04:31:58;;;;;;;;;;;;;;;12.76;63.41;99931.22;4401848;32;34715;-90
2022/05/04 04:34:28;;;;;;;;;;;;;;;12.82;63.14;99927.91;4388637;32;32314;-90
2022/05/04 04:36:57;;;;;;;;;;;;;;;12.85;63.39;99924.94;4401878;32;33656;-90
2022/05/04 04:39:25;;;;;;;;;;;;;;;13.13;62.46;99929.19;4401940;32;36146;-89
2022/05/04 04:42:02;;;;;;;;;;;;;;;13.33;61.61;99928.78;4403001;32;34620;-91
2022/05/04 04:44:36;;;;;;;;;;;;;;;13.30;62.05;99936.31;4389279;32;32441;-92
2022/05/04 04:47:25;;;;;;;;;;;;;;;13.49;61.52;99930.75;4399523;32;32803;-91
2022/05/04 04:50:13;;;;;;;;;;;;;;;13.48;61.96;99934.41;4389467;32;34966;-91
2022/05/04 04:52:43;;;;;;;;;;;;;;;13.66;61.78;99937.81;4392963;32;35081;-90
2022/05/04 04:55:32;;;;;;;;;;;;;;;13.21;64.25;99932.75;4399793;32;33044;-91
2022/05/04 04:58:06;;;;;;;;;;;;;;;13.28;64.26;99938.28;4382862;32;33984;-93
2022/05/04 05:00:48;;;;;;;;;;;;;;;13.28;64.66;99936.47;4394046;32;35073;-90
2022/05/04 05:03:44;;;;;;;;;;;;;;;13.64;63.70;99937.16;4397998;32;35268;-92
2022/05/04 05:06:18;;;;;;;;;;;;;;;13.72;64.01;99942.53;4394938;32;32522;-92
2022/05/04 05:09:06;;;;;;;;;;;;;;;13.86;64.04;99936.59;4396431;32;32553;-91
2022/05/04 05:11:36;;;;;;;;;;;;;;;13.64;65.41;99942.50;4405458;32;33424;-93
2022/05/04 05:16:58;;;;;;;;;;;;;;;14.00;64.82;99944.84;4395626;32;33458;-91
2022/05/04 05:19:48;;;;;;;;;;;;;;;14.57;63.20;99952.00;4397047;32;34037;-90
2022/05/04 05:22:38;;;;;;;;;;;;;;;14.76;63.24;99951.69;4397630;32;34569;-90
2022/05/04 05:25:30;;;;;;;;;;;;;;;15.13;61.62;99947.47;4404911;32;35120;-91
2022/05/04 05:28:17;;;;;;;;;;;;;;;15.25;61.48;99951.50;4395360;32;33950;-91
2022/05/04 05:31:05;;;;;;;;;;;;;;;15.40;61.08;99946.31;4407118;32;33652;-91
2022/05/04 05:33:34;;;;;;;;;;;;;;;14.76;62.46;99954.38;4386425;32;34092;-91
2022/05/04 05:36:02;;;;;;;;;;;;;;;15.32;61.30;99941.78;4390093;32;33784;-91
2022/05/04 05:38:34;;;;;;;;;;;;;;;15.27;62.49;99948.63;4392973;32;32855;-92
2022/05/04 05:41:06;;;;;;;;;;;;;;;15.70;61.03;99949.03;4380336;32;32596;-92
2022/05/04 05:43:42;;;;;;;;;;;;;;;15.61;61.28;99958.16;4400384;32;34520;-90
2022/05/04 05:46:29;;;;;;;;;;;;;;;15.80;60.42;99946.19;4394113;32;33268;-91
2022/05/04 05:49:17;;;;;;;;;;;;;;;16.03;60.23;99945.22;4395358;32;32918;-92
2022/05/04 05:51:46;;;;;;;;;;;;;;;16.27;59.60;99949.63;4396470;32;34374;-92
2022/05/04 05:54:34;;;;;;;;;;;;;;;16.48;59.54;99942.66;4397057;32;34671;-90
2022/05/04 05:57:04;;;;;;;;;;;;;;;16.62;58.98;99943.75;4385610;32;33398;-91
2022/05/04 05:59:56;;;;;;;;;;;;;;;16.65;58.94;99943.38;4397803;32;33357;-91
2022/05/04 06:02:37;;;;;;;;;;;;;;;16.94;58.40;99949.69;4398582;32;33914;-91
2022/05/04 06:05:26;;;;;;;;;;;;;;;16.96;58.54;99952.19;4398567;32;34645;-91
2022/05/04 06:08:13;;;;;;;;;;;;;;;17.03;58.38;99958.50;4397602;32;34175;-91
2022/05/04 06:10:44;;;;;;;;;;;;;;;17.22;58.20;99963.37;4399258;32;32830;-90
2022/05/04 06:13:32;;;;;;;;;;;;;;;17.59;57.58;99958.84;4398708;32;32485;-92
2022/05/04 06:16:02;;;;;;;;;;;;;;;17.51;57.75;99962.44;4400114;32;35079;-90
2022/05/04 06:18:31;;;;;;;;;;;;;;;17.74;57.81;99962.34;4399073;32;34867;-91
2022/05/04 06:21:05;;;;;;;;;;;;;;;17.23;58.75;99965.91;4397757;32;33044;-91
2022/05/04 06:23:41;;;;;;;;;;;;;;;17.67;57.68;99961.44;4395660;32;33560;-92
2022/05/04 06:26:30;;;;;;;;;;;;;;;17.87;57.40;99962.56;4396996;32;35254;-92
2022/05/04 06:29:17;;;;;;;;;;;;;;;18.42;55.96;99962.87;4396960;32;34363;-91
2022/05/04 06:34:55;;;;;;;;;;;;;;;18.62;56.02;99962.03;4396617;32;33992;-90
2022/05/04 06:37:44;;;;;;;;;;;;;;;18.64;55.18;99970.78;4397071;32;34119;-91
2022/05/04 06:40:13;;;;;;;;;;;;;;;18.95;52.96;99968.59;4384027;32;34982;-91
2022/05/04 06:43:03;;;;;;;;;;;;;;;19.25;53.32;99966.62;4394363;32;33696;-92
2022/05/04 06:45:34;;;;;;;;;;;;;;;19.38;54.01;99964.03;4396758;32;33003;-91
2022/05/04 06:48:08;;;;;;;;;;;;;;;19.15;52.76;99966.91;4400097;32;35367;-90
2022/05/04 06:50:56;;;;;;;;;;;;;;;19.32;53.90;99962.09;4408932;32;34377;-90
2022/05/04 06:53:33;;;;;;;;;;;;;;;18.67;51.56;99964.16;4393881;32;33249;-90
2022/05/04 06:56:18;;;;;;;;;;;;;;;18.99;50.59;99953.69;4390567;32;34393;-89
2022/05/04 06:59:06;;;;;;;;;;;;;;;19.78;48.95;99966.78;4401375;32;35707;-90
2022/05/04 07:01:45;;;;;;;;;;;;;;;20.13;49.42;99954.13;4392656;32;34360;-90
2022/05/04 07:04:16;;;;;;;;;;;;;;;20.24;49.29;99956.25;4387064;32;31633;-90
2022/05/04 07:06:44;;;;;;;;;;;;;;;20.38;47.22;99952.56;4376756;32;33695;-89
2022/05/04 07:09:13;;;;;;;;;;;;;;;20.67;47.33;99951.19;4390164;32;34591;-90
2022/05/04 07:12:02;;;;;;;;;;;;;;;20.72;47.05;99951.41;4390677;32;33866;-90
2022/05/04 07:14:34;;;;;;;;;;;;;;;20.99;46.96;99953.13;4387856;32;32192;-89
2022/05/04 07:17:23;;;;;;;;;;;;;;;21.12;45.01;99953.16;4392107;32;34256;-91
2022/05/04 07:19:53;;;;;;;;;;;;;;;21.05;46.55;99955.00;4379249;32;34936;-91
2022/05/04 07:22:41;;;;;;;;;;;;;;;20.82;45.55;99951.00;4376805;32;33829;-92
2022/05/04 07:25:09;;;;;;;;;;;;;;;21.36;45.65;99957.09;4400363;32;33277;-91
2022/05/04 07:27:46;;;;;;;;;;;;;;;21.79;43.28;99956.44;4390199;32;33930;-90
2022/05/04 07:30:14;;;;;;;;;;;;;;;21.64;45.54;99957.69;4385830;32;34379;-90
2022/05/04 07:33:03;;;;;;;;;;;;;;;21.87;42.84;99956.22;4397058;32;34095;-90
2022/05/04 07:35:31;;;;;;;;;;;;;;;22.16;43.48;99953.00;4375886;32;32162;-91
2022/05/04 07:38:11;;;;;;;;;;;;;;;22.42;42.57;99955.63;4388394;32;33007;-90
2022/05/04 07:43:50;;;;;;;;;;;;;;;22.60;42.15;99963.03;4407416;32;34467;-90
2022/05/04 07:46:19;;;;;;;;;;;;;;;22.63;41.24;99958.00;4403015;32;32455;-91
2022/05/04 07:48:46;;;;;;;;;;;;;;;22.83;43.39;99953.28;4393051;32;34138;-90
2022/05/04 07:51:15;;;;;;;;;;;;;;;22.85;40.49;99953.88;4404409;32;34273;-92
2022/05/04 07:54:03;;;;;;;;;;;;;;;22.93;39.90;99960.94;4403287;32;33171;-91
2022/05/04 07:56:33;;;;;;;;;;;;;;;23.07;40.53;99957.91;4395089;32;32514;-90
2022/05/04 07:59:21;;;;;;;;;;;;;;;23.16;41.48;99961.22;4382174;32;33928;-90
2022/05/04 08:05:02;;;;;;;;;;;;;;;22.90;39.19;99969.50;4398437;32;33211;-91
2022/05/04 08:07:32;;;;;;;;;;;;;;;23.06;37.59;99967.12;4388373;32;32160;-90
2022/05/04 08:10:03;;;;;;;;;;;;;;;22.99;37.10;99968.19;4401698;32;34641;-89
2022/05/04 08:12:33;;;;;;;;;;;;;;;22.84;37.83;99965.78;4385714;32;33533;-89
2022/05/04 08:15:12;;;;;;;;;;;;;;;23.19;36.77;99964.31;4392557;32;33806;-88
2022/05/04 08:17:43;;;;;;;;;;;;;;;23.33;36.18;99962.34;4391174;32;32610;-90
2022/05/04 08:20:14;;;;;;;;;;;;;;;23.26;37.01;99961.56;4390342;32;32568;-91
2022/05/04 08:22:43;;;;;;;;;;;;;;;23.48;35.92;99963.66;4388079;32;34519;-90
2022/05/04 08:25:11;;;;;;;;;;;;;;;23.26;37.48;99964.25;4392464;32;35100;-89
2022/05/04 08:27:41;;;;;;;;;;;;;;;23.53;36.53;99966.53;4386640;32;32892;-90
2022/05/04 08:30:11;;;;;;;;;;;;;;;23.28;36.54;99963.00;4407160;32;34831;-90
2022/05/04 08:32:45;;;;;;;;;;;;;;;23.63;36.85;99975.00;4400650;32;34068;-90
2022/05/04 08:35:17;;;;;;;;;;;;;;;23.90;38.11;99965.56;4389998;32;33083;-90
2022/05/04 08:37:55;;;;;;;;;;;;;;;23.37;38.95;99967.09;4389731;32;33593;-90
2022/05/04 08:40:40;;;;;;;;;;;;;;;24.35;36.90;99970.47;4390482;32;33920;-89
2022/05/04 08:43:18;;;;;;;;;;;;;;;24.69;36.03;99974.44;4401163;32;34392;-90
2022/05/04 08:45:53;;;;;;;;;;;;;;;24.85;37.34;99973.78;4404668;32;34047;-91
2022/05/04 08:48:26;;;;;;;;;;;;;;;24.77;36.02;99974.12;4397054;32;32655;-91
2022/05/04 08:50:54;;;;;;;;;;;;;;;24.37;34.75;99981.13;4404525;32;32348;-89
2022/05/04 08:53:24;;;;;;;;;;;;;;;24.92;34.97;99972.63;4376932;32;35923;-90
2022/05/04 08:56:13;;;;;;;;;;;;;;;24.44;34.06;99974.53;4393011;32;34872;-89
2022/05/04 08:58:53;;;;;;;;;;;;;;;24.58;35.85;99972.50;4376433;32;32264;-90
2022/05/04 09:01:45;;;;;;;;;;;;;;;25.00;34.49;99963.28;4389902;32;32661;-91
2022/05/04 09:04:32;;;;;;;;;;;;;;;25.30;33.76;99964.94;4403044;32;34868;-90
2022/05/04 09:07:04;;;;;;;;;;;;;;;24.97;35.18;99969.22;4389537;32;35102;-90
2022/05/04 09:09:43;;;;;;;;;;;;;;;25.35;35.23;99961.50;4393254;32;32097;-89
2022/05/04 09:12:19;;;;;;;;;;;;;;;25.34;34.90;99968.88;4380417;32;34541;-91
2022/05/04 09:15:17;;;;;;;;;;;;;;;25.34;34.90;99963.41;4392567;32;34479;-90
2022/05/04 09:18:06;;;;;;;;;;;;;;;25.15;33.14;99969.97;4408082;32;34124;-89
2022/05/04 09:20:45;;;;;;;;;;;;;;;24.71;33.35;99970.44;4396450;32;31822;-92
2022/05/04 09:23:32;;;;;;;;;;;;;;;24.91;34.94;99962.00;4394807;32;33610;-87
2022/05/04 09:26:06;;;;;;;;;;;;;;;25.05;35.24;99964.28;4392301;32;34101;-87
2022/05/04 09:28:59;;;;;;;;;;;;;;;24.72;34.14;99966.66;4387621;32;33393;-86
2022/05/04 09:31:47;;;;;;;;;;;;;;;25.02;33.83;99961.19;4399843;32;32894;-87
2022/05/04 09:34:17;;;;;;;;;;;;;;;25.05;33.18;99967.00;4377707;32;33434;-90
2022/05/04 09:46:07;;;;;;;;;;;;;;;24.84;38.36;99961.25;4395887;32;33668;-87
2022/05/04 09:48:43;;;;;;;;;;;;;;;25.02;34.16;99961.19;4403920;32;35375;-85
2022/05/04 09:51:16;;;;;;;;;;;;;;;24.54;34.91;99960.44;4396666;32;33593;-88
2022/05/04 09:53:46;;;;;;;;;;;;;;;24.59;35.66;99964.13;4383002;32;33309;-87
2022/05/04 09:56:24;;;;;;;;;;;;;;;24.85;36.68;99949.31;4397358;32;33931;-86
2022/05/04 09:58:53;;;;;;;;;;;;;;;24.41;37.38;99949.69;4395179;32;35608;-86
2022/05/04 10:01:23;;;;;;;;;;;;;;;24.82;34.87;99950.59;4396205;32;34246;-89
2022/05/04 10:03:51;;;;;;;;;;;;;;;24.50;33.47;99948.31;4382637;32;33798;-89
2022/05/04 10:06:23;;;;;;;;;;;;;;;23.93;33.08;99946.94;4382709;32;33597;-85
2022/05/04 10:08:50;;;;;;;;;;;;;;;23.98;33.78;99943.53;4383535;32;33797;-86
2022/05/04 10:11:32;;;;;;;;;;;;;;;23.68;33.57;99945.28;4395891;32;34177;-86
2022/05/04 10:14:05;;;;;;;;;;;;;;;24.14;33.01;99934.75;4396932;32;33784;-85
2022/05/04 10:16:39;;;;;;;;;;;;;;;23.91;33.93;99938.16;4397614;32;33516;-88
2022/05/04 10:19:13;;;;;;;;;;;;;;;23.95;33.60;99930.38;4382165;32;33905;-88
2022/05/04 10:21:43;;;;;;;;;;;;;;;24.16;33.09;99927.19;4381022;32;34981;-88
2022/05/04 10:24:12;;;;;;;;;;;;;;;24.08;34.51;99927.53;4382632;32;33292;-87
2022/05/04 10:26:40;;;;;;;;;;;;;;;23.66;34.43;99931.09;4371534;32;34826;-88
2022/05/04 10:32:37;;;;;;;;;;;;;;;24.15;33.87;99929.09;4396988;32;34588;-87
2022/05/04 10:35:26;;;;;;;;;;;;;;;24.03;33.40;99927.38;4396202;32;33199;-87
2022/05/04 10:38:16;;;;;;;;;;;;;;;23.42;33.76;99928.41;4396368;32;32851;-89
